sensor_id;sensor_type;location;lat;lon;timestamp;temperature;humidity
18670;DHT22;9464;44.918;9.670;2023-02-28T00:01:12;4.90;1.00
18670;DHT22;9464;44.918;9.670;2023-02-28T00:03:41;4.90;1.00
18670;DHT22;9464;44.918;9.670;2023-02-28T00:06:11;4.90;1.00
18670;DHT22;9464;44.918;9.670;2023-02-28T00:08:39;4.90;1.00
18670;DHT22;9464;44.918;9.670;2023-02-28T00:11:10;4.90;1.00
18670;DHT22;9464;44.918;9.670;2023-02-28T00:13:40;4.90;1.00
18670;DHT22;9464;44.918;9.670;2023-02-28T00:16:10;4.90;1.00
18670;DHT22;9464;44.918;9.670;2023-02-28T00:18:40;4.90;1.00
18670;DHT22;9464;44.918;9.670;2023-02-28T00:21:10;4.80;1.00
18670;DHT22;9464;44.918;9.670;2023-02-28T00:23:38;4.80;1.00
18670;DHT22;9464;44.918;9.670;2023-02-28T00:26:07;4.90;1.00
18670;DHT22;9464;44.918;9.670;2023-02-28T00:28:35;4.80;1.00
18670;DHT22;9464;44.918;9.670;2023-02-28T00:31:03;4.80;1.00
18670;DHT22;9464;44.918;9.670;2023-02-28T00:33:32;4.80;1.00
18670;DHT22;9464;44.918;9.670;2023-02-28T00:36:05;4.80;1.00
18670;DHT22;9464;44.918;9.670;2023-02-28T00:38:36;4.80;1.00
18670;DHT22;9464;44.918;9.670;2023-02-28T00:41:04;4.80;1.00
18670;DHT22;9464;44.918;9.670;2023-02-28T00:43:33;4.80;1.00
18670;DHT22;9464;44.918;9.670;2023-02-28T00:46:02;4.80;1.00
18670;DHT22;9464;44.918;9.670;2023-02-28T00:48:31;4.90;1.00
18670;DHT22;9464;44.918;9.670;2023-02-28T00:50:59;4.80;1.00
18670;DHT22;9464;44.918;9.670;2023-02-28T00:53:28;4.80;1.00
18670;DHT22;9464;44.918;9.670;2023-02-28T00:55:58;4.90;1.00
18670;DHT22;9464;44.918;9.670;2023-02-28T00:58:27;4.90;1.00
18670;DHT22;9464;44.918;9.670;2023-02-28T01:00:55;4.90;1.00
18670;DHT22;9464;44.918;9.670;2023-02-28T01:03:23;4.80;1.00
18670;DHT22;9464;44.918;9.670;2023-02-28T01:05:52;4.80;1.00
18670;DHT22;9464;44.918;9.670;2023-02-28T01:08:20;4.80;1.00
18670;DHT22;9464;44.918;9.670;2023-02-28T01:10:49;4.80;1.00
18670;DHT22;9464;44.918;9.670;2023-02-28T01:13:19;4.70;1.00
18670;DHT22;9464;44.918;9.670;2023-02-28T01:15:50;4.70;1.00
18670;DHT22;9464;44.918;9.670;2023-02-28T01:18:19;4.70;1.00
18670;DHT22;9464;44.918;9.670;2023-02-28T01:20:47;4.70;1.00
18670;DHT22;9464;44.918;9.670;2023-02-28T01:23:16;4.70;1.00
18670;DHT22;9464;44.918;9.670;2023-02-28T01:25:44;4.70;1.00
18670;DHT22;9464;44.918;9.670;2023-02-28T01:28:13;4.60;1.00
18670;DHT22;9464;44.918;9.670;2023-02-28T01:30:42;4.60;1.00
18670;DHT22;9464;44.918;9.670;2023-02-28T01:33:10;4.60;1.00
18670;DHT22;9464;44.918;9.670;2023-02-28T01:35:39;4.60;1.00
18670;DHT22;9464;44.918;9.670;2023-02-28T01:38:07;4.60;1.00
18670;DHT22;9464;44.918;9.670;2023-02-28T01:40:48;4.50;1.00
18670;DHT22;9464;44.918;9.670;2023-02-28T01:43:21;4.50;1.00
18670;DHT22;9464;44.918;9.670;2023-02-28T01:45:52;4.50;1.00
18670;DHT22;9464;44.918;9.670;2023-02-28T01:48:24;4.50;1.00
18670;DHT22;9464;44.918;9.670;2023-02-28T01:50:55;4.50;1.00
18670;DHT22;9464;44.918;9.670;2023-02-28T01:53:29;4.50;1.00
18670;DHT22;9464;44.918;9.670;2023-02-28T01:56:00;4.60;1.00
18670;DHT22;9464;44.918;9.670;2023-02-28T01:58:32;4.70;1.00
18670;DHT22;9464;44.918;9.670;2023-02-28T02:01:01;4.70;1.00
18670;DHT22;9464;44.918;9.670;2023-02-28T02:03:30;4.70;1.00
18670;DHT22;9464;44.918;9.670;2023-02-28T02:05:59;4.80;1.00
18670;DHT22;9464;44.918;9.670;2023-02-28T02:08:29;4.80;1.00
18670;DHT22;9464;44.918;9.670;2023-02-28T02:10:59;4.90;1.00
18670;DHT22;9464;44.918;9.670;2023-02-28T02:13:59;4.90;1.00
18670;DHT22;9464;44.918;9.670;2023-02-28T02:16:43;4.90;1.00
18670;DHT22;9464;44.918;9.670;2023-02-28T02:19:46;4.90;1.00
18670;DHT22;9464;44.918;9.670;2023-02-28T02:22:36;5.00;1.00
18670;DHT22;9464;44.918;9.670;2023-02-28T02:25:24;5.00;1.00
18670;DHT22;9464;44.918;9.670;2023-02-28T02:28:17;5.00;1.00
18670;DHT22;9464;44.918;9.670;2023-02-28T02:31:16;4.90;1.00
18670;DHT22;9464;44.918;9.670;2023-02-28T02:34:28;4.80;1.00
18670;DHT22;9464;44.918;9.670;2023-02-28T02:37:05;4.80;1.00
18670;DHT22;9464;44.918;9.670;2023-02-28T02:39:44;4.70;1.00
18670;DHT22;9464;44.918;9.670;2023-02-28T02:42:16;4.70;1.00
18670;DHT22;9464;44.918;9.670;2023-02-28T02:44:50;4.70;1.00
18670;DHT22;9464;44.918;9.670;2023-02-28T02:47:23;4.70;1.00
18670;DHT22;9464;44.918;9.670;2023-02-28T02:49:57;4.70;1.00
18670;DHT22;9464;44.918;9.670;2023-02-28T02:52:31;4.70;1.00
18670;DHT22;9464;44.918;9.670;2023-02-28T02:55:02;4.70;1.00
18670;DHT22;9464;44.918;9.670;2023-02-28T02:57:35;4.70;1.00
18670;DHT22;9464;44.918;9.670;2023-02-28T03:00:06;4.70;1.00
18670;DHT22;9464;44.918;9.670;2023-02-28T03:02:36;4.70;1.00
18670;DHT22;9464;44.918;9.670;2023-02-28T03:05:14;4.70;1.00
18670;DHT22;9464;44.918;9.670;2023-02-28T03:07:45;4.60;1.00
18670;DHT22;9464;44.918;9.670;2023-02-28T03:10:35;4.60;1.00
18670;DHT22;9464;44.918;9.670;2023-02-28T03:13:18;4.60;1.00
18670;DHT22;9464;44.918;9.670;2023-02-28T03:15:58;4.60;1.00
18670;DHT22;9464;44.918;9.670;2023-02-28T03:18:34;4.60;1.00
18670;DHT22;9464;44.918;9.670;2023-02-28T03:21:14;4.50;1.00
18670;DHT22;9464;44.918;9.670;2023-02-28T03:23:51;4.50;1.00
18670;DHT22;9464;44.918;9.670;2023-02-28T03:26:23;4.50;1.00
18670;DHT22;9464;44.918;9.670;2023-02-28T03:28:57;4.40;1.00
18670;DHT22;9464;44.918;9.670;2023-02-28T03:31:31;4.50;1.00
18670;DHT22;9464;44.918;9.670;2023-02-28T03:34:05;4.40;1.00
18670;DHT22;9464;44.918;9.670;2023-02-28T03:36:39;4.40;1.00
18670;DHT22;9464;44.918;9.670;2023-02-28T03:39:15;4.40;1.00
18670;DHT22;9464;44.918;9.670;2023-02-28T03:41:46;4.30;1.00
18670;DHT22;9464;44.918;9.670;2023-02-28T03:44:19;4.30;1.00
18670;DHT22;9464;44.918;9.670;2023-02-28T03:46:52;4.30;1.00
18670;DHT22;9464;44.918;9.670;2023-02-28T03:49:26;4.20;1.00
18670;DHT22;9464;44.918;9.670;2023-02-28T03:51:58;4.20;1.00
18670;DHT22;9464;44.918;9.670;2023-02-28T03:54:31;4.20;1.00
18670;DHT22;9464;44.918;9.670;2023-02-28T03:57:05;4.20;1.00
18670;DHT22;9464;44.918;9.670;2023-02-28T03:59:39;4.20;1.00
18670;DHT22;9464;44.918;9.670;2023-02-28T04:02:10;4.20;1.00
18670;DHT22;9464;44.918;9.670;2023-02-28T04:04:38;4.20;1.00
18670;DHT22;9464;44.918;9.670;2023-02-28T04:07:17;4.20;1.00
18670;DHT22;9464;44.918;9.670;2023-02-28T04:09:45;4.20;1.00
18670;DHT22;9464;44.918;9.670;2023-02-28T04:12:13;4.20;1.00
18670;DHT22;9464;44.918;9.670;2023-02-28T04:14:42;4.20;1.00
18670;DHT22;9464;44.918;9.670;2023-02-28T04:17:10;4.20;1.00
18670;DHT22;9464;44.918;9.670;2023-02-28T04:19:38;4.20;1.00
18670;DHT22;9464;44.918;9.670;2023-02-28T04:22:08;4.20;1.00
18670;DHT22;9464;44.918;9.670;2023-02-28T04:24:38;4.30;1.00
18670;DHT22;9464;44.918;9.670;2023-02-28T04:27:08;4.30;1.00
18670;DHT22;9464;44.918;9.670;2023-02-28T04:29:37;4.30;1.00
18670;DHT22;9464;44.918;9.670;2023-02-28T04:32:05;4.30;1.00
18670;DHT22;9464;44.918;9.670;2023-02-28T04:34:33;4.30;1.00
18670;DHT22;9464;44.918;9.670;2023-02-28T04:37:02;4.40;1.00
18670;DHT22;9464;44.918;9.670;2023-02-28T04:39:41;4.40;1.00
18670;DHT22;9464;44.918;9.670;2023-02-28T04:42:10;4.50;1.00
18670;DHT22;9464;44.918;9.670;2023-02-28T04:44:38;4.60;1.00
18670;DHT22;9464;44.918;9.670;2023-02-28T04:47:06;4.60;1.00
18670;DHT22;9464;44.918;9.670;2023-02-28T04:49:35;4.60;1.00
18670;DHT22;9464;44.918;9.670;2023-02-28T04:52:03;4.60;1.00
18670;DHT22;9464;44.918;9.670;2023-02-28T04:54:31;4.70;1.00
18670;DHT22;9464;44.918;9.670;2023-02-28T04:57:01;4.70;1.00
18670;DHT22;9464;44.918;9.670;2023-02-28T04:59:31;4.60;1.00
18670;DHT22;9464;44.918;9.670;2023-02-28T05:01:59;4.60;1.00
18670;DHT22;9464;44.918;9.670;2023-02-28T05:04:34;4.60;1.00
18670;DHT22;9464;44.918;9.670;2023-02-28T05:07:02;4.60;1.00
18670;DHT22;9464;44.918;9.670;2023-02-28T05:09:30;4.60;1.00
18670;DHT22;9464;44.918;9.670;2023-02-28T05:12:01;4.50;1.00
18670;DHT22;9464;44.918;9.670;2023-02-28T05:14:30;4.50;1.00
18670;DHT22;9464;44.918;9.670;2023-02-28T05:16:58;4.40;1.00
18670;DHT22;9464;44.918;9.670;2023-02-28T05:19:26;4.40;1.00
18670;DHT22;9464;44.918;9.670;2023-02-28T05:21:55;4.30;1.00
18670;DHT22;9464;44.918;9.670;2023-02-28T05:24:23;4.30;1.00
18670;DHT22;9464;44.918;9.670;2023-02-28T05:26:53;4.30;1.00
18670;DHT22;9464;44.918;9.670;2023-02-28T05:29:23;4.20;1.00
18670;DHT22;9464;44.918;9.670;2023-02-28T05:31:51;4.20;1.00
18670;DHT22;9464;44.918;9.670;2023-02-28T05:34:19;4.10;1.00
18670;DHT22;9464;44.918;9.670;2023-02-28T05:36:48;4.10;1.00
18670;DHT22;9464;44.918;9.670;2023-02-28T05:39:16;4.00;1.00
18670;DHT22;9464;44.918;9.670;2023-02-28T05:41:44;3.90;1.00
18670;DHT22;9464;44.918;9.670;2023-02-28T05:44:12;3.90;1.00
18670;DHT22;9464;44.918;9.670;2023-02-28T05:46:42;3.90;1.00
18670;DHT22;9464;44.918;9.670;2023-02-28T05:49:10;3.90;1.00
18670;DHT22;9464;44.918;9.670;2023-02-28T05:51:38;3.70;1.00
18670;DHT22;9464;44.918;9.670;2023-02-28T05:54:07;3.80;1.00
18670;DHT22;9464;44.918;9.670;2023-02-28T05:56:35;3.70;1.00
18670;DHT22;9464;44.918;9.670;2023-02-28T05:59:06;3.70;1.00
18670;DHT22;9464;44.918;9.670;2023-02-28T06:01:36;3.70;1.00
18670;DHT22;9464;44.918;9.670;2023-02-28T06:04:08;3.80;1.00
18670;DHT22;9464;44.918;9.670;2023-02-28T06:06:51;3.80;1.00
18670;DHT22;9464;44.918;9.670;2023-02-28T06:09:19;4.00;1.00
18670;DHT22;9464;44.918;9.670;2023-02-28T06:11:48;4.10;1.00
18670;DHT22;9464;44.918;9.670;2023-02-28T06:14:17;4.20;1.00
18670;DHT22;9464;44.918;9.670;2023-02-28T06:16:46;4.20;1.00
18670;DHT22;9464;44.918;9.670;2023-02-28T06:19:16;4.30;1.00
18670;DHT22;9464;44.918;9.670;2023-02-28T06:21:45;4.40;1.00
18670;DHT22;9464;44.918;9.670;2023-02-28T06:24:17;4.40;1.00
18670;DHT22;9464;44.918;9.670;2023-02-28T06:26:45;4.50;1.00
18670;DHT22;9464;44.918;9.670;2023-02-28T06:29:14;4.50;1.00
18670;DHT22;9464;44.918;9.670;2023-02-28T06:31:44;4.60;1.00
18670;DHT22;9464;44.918;9.670;2023-02-28T06:34:13;4.60;1.00
18670;DHT22;9464;44.918;9.670;2023-02-28T06:36:43;4.60;1.00
18670;DHT22;9464;44.918;9.670;2023-02-28T06:39:11;4.70;1.00
18670;DHT22;9464;44.918;9.670;2023-02-28T06:41:39;4.70;1.00
18670;DHT22;9464;44.918;9.670;2023-02-28T06:44:21;4.70;1.00
18670;DHT22;9464;44.918;9.670;2023-02-28T06:46:50;4.70;1.00
18670;DHT22;9464;44.918;9.670;2023-02-28T06:49:18;4.70;1.00
18670;DHT22;9464;44.918;9.670;2023-02-28T06:51:47;4.80;1.00
18670;DHT22;9464;44.918;9.670;2023-02-28T06:54:16;4.80;1.00
18670;DHT22;9464;44.918;9.670;2023-02-28T06:56:44;4.80;1.00
18670;DHT22;9464;44.918;9.670;2023-02-28T06:59:13;4.80;1.00
18670;DHT22;9464;44.918;9.670;2023-02-28T07:01:41;4.80;1.00
18670;DHT22;9464;44.918;9.670;2023-02-28T07:04:10;4.90;1.00
18670;DHT22;9464;44.918;9.670;2023-02-28T07:06:40;4.90;1.00
18670;DHT22;9464;44.918;9.670;2023-02-28T07:09:09;4.90;1.00
18670;DHT22;9464;44.918;9.670;2023-02-28T07:11:38;4.90;1.00
18670;DHT22;9464;44.918;9.670;2023-02-28T07:14:06;4.90;1.00
18670;DHT22;9464;44.918;9.670;2023-02-28T07:16:35;4.90;1.00
18670;DHT22;9464;44.918;9.670;2023-02-28T07:19:04;4.90;1.00
18670;DHT22;9464;44.918;9.670;2023-02-28T07:21:32;5.00;1.00
18670;DHT22;9464;44.918;9.670;2023-02-28T07:24:00;5.00;1.00
18670;DHT22;9464;44.918;9.670;2023-02-28T07:26:30;5.00;1.00
18670;DHT22;9464;44.918;9.670;2023-02-28T07:29:00;5.00;1.00
18670;DHT22;9464;44.918;9.670;2023-02-28T07:31:29;5.00;1.00
18670;DHT22;9464;44.918;9.670;2023-02-28T07:33:57;5.10;1.00
18670;DHT22;9464;44.918;9.670;2023-02-28T07:36:26;5.10;1.00
18670;DHT22;9464;44.918;9.670;2023-02-28T07:38:54;5.10;1.00
18670;DHT22;9464;44.918;9.670;2023-02-28T07:41:22;5.10;1.00
18670;DHT22;9464;44.918;9.670;2023-02-28T07:43:56;5.10;1.00
18670;DHT22;9464;44.918;9.670;2023-02-28T07:46:26;5.10;1.00
18670;DHT22;9464;44.918;9.670;2023-02-28T07:48:56;5.10;1.00
18670;DHT22;9464;44.918;9.670;2023-02-28T07:51:26;5.10;1.00
18670;DHT22;9464;44.918;9.670;2023-02-28T07:53:55;5.10;1.00
18670;DHT22;9464;44.918;9.670;2023-02-28T07:56:23;5.00;1.00
18670;DHT22;9464;44.918;9.670;2023-02-28T07:58:51;5.10;1.00
18670;DHT22;9464;44.918;9.670;2023-02-28T08:01:21;5.10;1.00
18670;DHT22;9464;44.918;9.670;2023-02-28T08:03:49;5.10;1.00
18670;DHT22;9464;44.918;9.670;2023-02-28T08:06:20;5.10;1.00
18670;DHT22;9464;44.918;9.670;2023-02-28T08:08:49;5.20;1.00
18670;DHT22;9464;44.918;9.670;2023-02-28T08:11:17;5.20;1.00
18670;DHT22;9464;44.918;9.670;2023-02-28T08:13:46;5.30;1.00
18670;DHT22;9464;44.918;9.670;2023-02-28T08:16:14;5.30;1.00
18670;DHT22;9464;44.918;9.670;2023-02-28T08:18:50;5.30;1.00
18670;DHT22;9464;44.918;9.670;2023-02-28T08:21:18;5.30;1.00
18670;DHT22;9464;44.918;9.670;2023-02-28T08:23:47;5.30;1.00
18670;DHT22;9464;44.918;9.670;2023-02-28T08:26:16;5.30;1.00
18670;DHT22;9464;44.918;9.670;2023-02-28T08:28:44;5.40;1.00
18670;DHT22;9464;44.918;9.670;2023-02-28T08:31:14;5.40;1.00
18670;DHT22;9464;44.918;9.670;2023-02-28T08:33:43;5.40;1.00
18670;DHT22;9464;44.918;9.670;2023-02-28T08:36:13;5.50;1.00
18670;DHT22;9464;44.918;9.670;2023-02-28T08:38:42;5.50;1.00
18670;DHT22;9464;44.918;9.670;2023-02-28T08:41:12;5.50;1.00
18670;DHT22;9464;44.918;9.670;2023-02-28T08:43:40;5.50;1.00
18670;DHT22;9464;44.918;9.670;2023-02-28T08:46:11;5.60;1.00
18670;DHT22;9464;44.918;9.670;2023-02-28T08:48:40;5.60;1.00
18670;DHT22;9464;44.918;9.670;2023-02-28T08:51:10;5.60;1.00
18670;DHT22;9464;44.918;9.670;2023-02-28T08:53:40;5.70;1.00
18670;DHT22;9464;44.918;9.670;2023-02-28T08:56:10;5.60;1.00
18670;DHT22;9464;44.918;9.670;2023-02-28T08:58:39;5.50;1.00
18670;DHT22;9464;44.918;9.670;2023-02-28T09:01:09;5.50;1.00
18670;DHT22;9464;44.918;9.670;2023-02-28T09:03:37;5.40;1.00
18670;DHT22;9464;44.918;9.670;2023-02-28T09:06:06;5.30;1.00
18670;DHT22;9464;44.918;9.670;2023-02-28T09:08:34;5.30;1.00
18670;DHT22;9464;44.918;9.670;2023-02-28T09:11:04;5.20;1.00
18670;DHT22;9464;44.918;9.670;2023-02-28T09:13:33;5.30;1.00
18670;DHT22;9464;44.918;9.670;2023-02-28T09:16:03;5.20;1.00
18670;DHT22;9464;44.918;9.670;2023-02-28T09:18:33;5.30;1.00
18670;DHT22;9464;44.918;9.670;2023-02-28T09:21:03;5.30;1.00
18670;DHT22;9464;44.918;9.670;2023-02-28T09:23:32;5.20;1.00
18670;DHT22;9464;44.918;9.670;2023-02-28T09:26:00;5.30;1.00
18670;DHT22;9464;44.918;9.670;2023-02-28T09:28:30;5.20;1.00
18670;DHT22;9464;44.918;9.670;2023-02-28T09:30:58;5.20;1.00
18670;DHT22;9464;44.918;9.670;2023-02-28T09:33:27;5.20;1.00
18670;DHT22;9464;44.918;9.670;2023-02-28T09:35:59;5.20;1.00
18670;DHT22;9464;44.918;9.670;2023-02-28T09:38:28;5.20;1.00
18670;DHT22;9464;44.918;9.670;2023-02-28T09:40:59;5.20;1.00
18670;DHT22;9464;44.918;9.670;2023-02-28T09:43:31;5.30;1.00
18670;DHT22;9464;44.918;9.670;2023-02-28T09:46:07;5.30;1.00
18670;DHT22;9464;44.918;9.670;2023-02-28T09:48:41;5.30;1.00
18670;DHT22;9464;44.918;9.670;2023-02-28T09:51:24;5.30;1.00
18670;DHT22;9464;44.918;9.670;2023-02-28T09:53:55;5.20;1.00
18670;DHT22;9464;44.918;9.670;2023-02-28T09:56:33;5.20;1.00
18670;DHT22;9464;44.918;9.670;2023-02-28T09:59:11;5.20;1.00
18670;DHT22;9464;44.918;9.670;2023-02-28T10:01:48;5.10;1.00
18670;DHT22;9464;44.918;9.670;2023-02-28T10:04:37;5.20;1.00
18670;DHT22;9464;44.918;9.670;2023-02-28T10:07:20;5.20;1.00
18670;DHT22;9464;44.918;9.670;2023-02-28T10:09:53;5.30;1.00
18670;DHT22;9464;44.918;9.670;2023-02-28T10:12:25;5.20;1.00
18670;DHT22;9464;44.918;9.670;2023-02-28T10:14:57;5.20;1.00
18670;DHT22;9464;44.918;9.670;2023-02-28T10:17:36;5.20;1.00
18670;DHT22;9464;44.918;9.670;2023-02-28T10:20:22;5.20;1.00
18670;DHT22;9464;44.918;9.670;2023-02-28T10:23:05;5.10;1.00
18670;DHT22;9464;44.918;9.670;2023-02-28T10:25:38;5.10;1.00
18670;DHT22;9464;44.918;9.670;2023-02-28T10:28:12;5.10;1.00
18670;DHT22;9464;44.918;9.670;2023-02-28T10:30:44;5.10;1.00
18670;DHT22;9464;44.918;9.670;2023-02-28T10:33:20;5.10;1.00
18670;DHT22;9464;44.918;9.670;2023-02-28T10:35:49;5.10;1.00
18670;DHT22;9464;44.918;9.670;2023-02-28T10:38:21;5.10;1.00
18670;DHT22;9464;44.918;9.670;2023-02-28T10:40:50;5.20;1.00
18670;DHT22;9464;44.918;9.670;2023-02-28T10:43:20;5.20;1.00
18670;DHT22;9464;44.918;9.670;2023-02-28T10:45:57;5.30;1.00
18670;DHT22;9464;44.918;9.670;2023-02-28T10:48:35;5.40;1.00
18670;DHT22;9464;44.918;9.670;2023-02-28T10:51:05;5.50;1.00
18670;DHT22;9464;44.918;9.670;2023-02-28T10:53:38;5.50;1.00
18670;DHT22;9464;44.918;9.670;2023-02-28T10:56:25;5.50;1.00
18670;DHT22;9464;44.918;9.670;2023-02-28T10:58:56;5.40;1.00
18670;DHT22;9464;44.918;9.670;2023-02-28T11:01:35;5.40;1.00
18670;DHT22;9464;44.918;9.670;2023-02-28T11:04:16;5.50;1.00
18670;DHT22;9464;44.918;9.670;2023-02-28T11:06:46;5.60;1.00
18670;DHT22;9464;44.918;9.670;2023-02-28T11:09:21;5.60;1.00
18670;DHT22;9464;44.918;9.670;2023-02-28T11:11:51;5.70;1.00
18670;DHT22;9464;44.918;9.670;2023-02-28T11:14:21;5.70;1.00
18670;DHT22;9464;44.918;9.670;2023-02-28T11:16:52;5.70;1.00
18670;DHT22;9464;44.918;9.670;2023-02-28T11:19:25;5.70;1.00
18670;DHT22;9464;44.918;9.670;2023-02-28T11:21:56;5.70;1.00
18670;DHT22;9464;44.918;9.670;2023-02-28T11:24:27;5.70;1.00
18670;DHT22;9464;44.918;9.670;2023-02-28T11:26:57;5.80;1.00
18670;DHT22;9464;44.918;9.670;2023-02-28T11:29:26;5.80;1.00
18670;DHT22;9464;44.918;9.670;2023-02-28T11:32:13;5.80;1.00
18670;DHT22;9464;44.918;9.670;2023-02-28T11:34:45;5.90;1.00
18670;DHT22;9464;44.918;9.670;2023-02-28T11:37:15;5.80;1.00
18670;DHT22;9464;44.918;9.670;2023-02-28T11:39:44;5.80;1.00
18670;DHT22;9464;44.918;9.670;2023-02-28T11:42:30;5.90;1.00
18670;DHT22;9464;44.918;9.670;2023-02-28T11:45:14;6.00;1.00
18670;DHT22;9464;44.918;9.670;2023-02-28T11:47:51;5.90;1.00
18670;DHT22;9464;44.918;9.670;2023-02-28T11:50:33;5.80;1.00
18670;DHT22;9464;44.918;9.670;2023-02-28T11:53:14;5.60;1.00
18670;DHT22;9464;44.918;9.670;2023-02-28T11:55:47;5.80;1.00
18670;DHT22;9464;44.918;9.670;2023-02-28T11:58:31;5.80;1.00
18670;DHT22;9464;44.918;9.670;2023-02-28T12:01:21;5.70;1.00
18670;DHT22;9464;44.918;9.670;2023-02-28T12:04:04;5.60;1.00
18670;DHT22;9464;44.918;9.670;2023-02-28T12:06:40;5.70;1.00
18670;DHT22;9464;44.918;9.670;2023-02-28T12:09:28;5.80;1.00
18670;DHT22;9464;44.918;9.670;2023-02-28T12:12:05;5.90;1.00
18670;DHT22;9464;44.918;9.670;2023-02-28T12:18:15;5.80;1.00
18670;DHT22;9464;44.918;9.670;2023-02-28T12:20:52;5.90;1.00
18670;DHT22;9464;44.918;9.670;2023-02-28T12:23:50;5.80;1.00
18670;DHT22;9464;44.918;9.670;2023-02-28T12:26:27;5.80;1.00
18670;DHT22;9464;44.918;9.670;2023-02-28T12:29:04;5.80;1.00
18670;DHT22;9464;44.918;9.670;2023-02-28T12:31:38;5.90;1.00
18670;DHT22;9464;44.918;9.670;2023-02-28T12:34:12;6.00;1.00
18670;DHT22;9464;44.918;9.670;2023-02-28T12:36:43;6.00;1.00
18670;DHT22;9464;44.918;9.670;2023-02-28T12:39:15;6.00;1.00
18670;DHT22;9464;44.918;9.670;2023-02-28T12:41:47;5.90;1.00
18670;DHT22;9464;44.918;9.670;2023-02-28T12:44:21;5.90;1.00
18670;DHT22;9464;44.918;9.670;2023-02-28T12:46:54;6.00;1.00
18670;DHT22;9464;44.918;9.670;2023-02-28T12:49:27;6.00;1.00
18670;DHT22;9464;44.918;9.670;2023-02-28T12:51:59;6.00;1.00
18670;DHT22;9464;44.918;9.670;2023-02-28T12:54:32;6.00;1.00
18670;DHT22;9464;44.918;9.670;2023-02-28T12:57:09;6.00;1.00
18670;DHT22;9464;44.918;9.670;2023-02-28T12:59:44;5.90;1.00
18670;DHT22;9464;44.918;9.670;2023-02-28T13:05:46;5.80;1.00
18670;DHT22;9464;44.918;9.670;2023-02-28T13:08:37;6.00;1.00
18670;DHT22;9464;44.918;9.670;2023-02-28T13:11:23;6.00;1.00
18670;DHT22;9464;44.918;9.670;2023-02-28T13:13:58;5.90;1.00
18670;DHT22;9464;44.918;9.670;2023-02-28T13:16:27;5.90;1.00
18670;DHT22;9464;44.918;9.670;2023-02-28T13:19:09;6.00;1.00
18670;DHT22;9464;44.918;9.670;2023-02-28T13:21:43;6.10;1.00
18670;DHT22;9464;44.918;9.670;2023-02-28T13:24:38;6.10;1.00
18670;DHT22;9464;44.918;9.670;2023-02-28T13:29:55;6.10;1.00
18670;DHT22;9464;44.918;9.670;2023-02-28T13:32:41;6.30;1.00
18670;DHT22;9464;44.918;9.670;2023-02-28T13:38:17;6.50;1.00
18670;DHT22;9464;44.918;9.670;2023-02-28T13:40:47;6.40;1.00
18670;DHT22;9464;44.918;9.670;2023-02-28T13:43:16;6.40;1.00
18670;DHT22;9464;44.918;9.670;2023-02-28T13:46:12;6.40;1.00
18670;DHT22;9464;44.918;9.670;2023-02-28T13:48:41;6.40;1.00
18670;DHT22;9464;44.918;9.670;2023-02-28T13:51:39;6.50;1.00
18670;DHT22;9464;44.918;9.670;2023-02-28T13:54:19;6.50;1.00
18670;DHT22;9464;44.918;9.670;2023-02-28T13:57:01;6.40;1.00
18670;DHT22;9464;44.918;9.670;2023-02-28T13:59:37;6.40;1.00
18670;DHT22;9464;44.918;9.670;2023-02-28T14:05:14;6.40;1.00
18670;DHT22;9464;44.918;9.670;2023-02-28T14:07:46;6.40;1.00
18670;DHT22;9464;44.918;9.670;2023-02-28T14:10:25;6.40;1.00
18670;DHT22;9464;44.918;9.670;2023-02-28T14:13:10;6.50;1.00
18670;DHT22;9464;44.918;9.670;2023-02-28T14:15:45;6.50;1.00
18670;DHT22;9464;44.918;9.670;2023-02-28T14:18:28;6.60;1.00
18670;DHT22;9464;44.918;9.670;2023-02-28T14:21:02;6.60;1.00
18670;DHT22;9464;44.918;9.670;2023-02-28T14:23:52;6.70;1.00
18670;DHT22;9464;44.918;9.670;2023-02-28T14:26:51;6.70;1.00
18670;DHT22;9464;44.918;9.670;2023-02-28T14:29:35;6.70;1.00
18670;DHT22;9464;44.918;9.670;2023-02-28T14:32:13;6.80;1.00
18670;DHT22;9464;44.918;9.670;2023-02-28T14:34:49;6.90;1.00
18670;DHT22;9464;44.918;9.670;2023-02-28T14:37:23;6.90;1.00
18670;DHT22;9464;44.918;9.670;2023-02-28T14:39:54;7.00;1.00
18670;DHT22;9464;44.918;9.670;2023-02-28T14:42:32;7.10;1.00
18670;DHT22;9464;44.918;9.670;2023-02-28T14:45:02;7.10;1.00
18670;DHT22;9464;44.918;9.670;2023-02-28T14:47:33;7.20;1.00
18670;DHT22;9464;44.918;9.670;2023-02-28T14:50:04;7.30;1.00
18670;DHT22;9464;44.918;9.670;2023-02-28T14:52:33;7.30;1.00
18670;DHT22;9464;44.918;9.670;2023-02-28T14:55:05;7.30;1.00
18670;DHT22;9464;44.918;9.670;2023-02-28T14:57:35;7.40;1.00
18670;DHT22;9464;44.918;9.670;2023-02-28T15:00:13;7.50;1.00
18670;DHT22;9464;44.918;9.670;2023-02-28T15:02:43;7.50;1.00
18670;DHT22;9464;44.918;9.670;2023-02-28T15:05:22;7.50;1.00
18670;DHT22;9464;44.918;9.670;2023-02-28T15:08:05;7.50;1.00
18670;DHT22;9464;44.918;9.670;2023-02-28T15:10:34;7.60;1.00
18670;DHT22;9464;44.918;9.670;2023-02-28T15:13:05;7.60;1.00
18670;DHT22;9464;44.918;9.670;2023-02-28T15:15:45;7.70;1.00
18670;DHT22;9464;44.918;9.670;2023-02-28T15:18:36;7.70;1.00
18670;DHT22;9464;44.918;9.670;2023-02-28T15:21:07;7.80;1.00
18670;DHT22;9464;44.918;9.670;2023-02-28T15:23:42;7.80;1.00
18670;DHT22;9464;44.918;9.670;2023-02-28T15:26:14;7.80;1.00
18670;DHT22;9464;44.918;9.670;2023-02-28T15:28:44;7.80;1.00
18670;DHT22;9464;44.918;9.670;2023-02-28T15:31:23;7.70;1.00
18670;DHT22;9464;44.918;9.670;2023-02-28T15:33:56;7.70;1.00
18670;DHT22;9464;44.918;9.670;2023-02-28T15:36:29;7.70;1.00
18670;DHT22;9464;44.918;9.670;2023-02-28T15:38:58;7.80;1.00
18670;DHT22;9464;44.918;9.670;2023-02-28T15:41:41;7.80;1.00
18670;DHT22;9464;44.918;9.670;2023-02-28T15:44:26;7.80;1.00
18670;DHT22;9464;44.918;9.670;2023-02-28T15:47:00;7.80;1.00
18670;DHT22;9464;44.918;9.670;2023-02-28T15:49:33;7.80;1.00
18670;DHT22;9464;44.918;9.670;2023-02-28T15:52:13;7.70;1.00
18670;DHT22;9464;44.918;9.670;2023-02-28T15:54:44;7.70;1.00
18670;DHT22;9464;44.918;9.670;2023-02-28T15:57:17;7.70;1.00
18670;DHT22;9464;44.918;9.670;2023-02-28T15:59:51;7.80;1.00
18670;DHT22;9464;44.918;9.670;2023-02-28T16:02:22;7.80;1.00
18670;DHT22;9464;44.918;9.670;2023-02-28T16:05:01;7.90;1.00
18670;DHT22;9464;44.918;9.670;2023-02-28T16:07:29;7.90;1.00
18670;DHT22;9464;44.918;9.670;2023-02-28T16:09:58;7.90;1.00
18670;DHT22;9464;44.918;9.670;2023-02-28T16:12:28;8.00;1.00
18670;DHT22;9464;44.918;9.670;2023-02-28T16:14:58;8.00;1.00
18670;DHT22;9464;44.918;9.670;2023-02-28T16:17:33;8.00;1.00
18670;DHT22;9464;44.918;9.670;2023-02-28T16:20:11;8.00;1.00
18670;DHT22;9464;44.918;9.670;2023-02-28T16:22:39;8.00;1.00
18670;DHT22;9464;44.918;9.670;2023-02-28T16:25:11;8.00;1.00
18670;DHT22;9464;44.918;9.670;2023-02-28T16:27:40;8.00;1.00
18670;DHT22;9464;44.918;9.670;2023-02-28T16:30:18;8.00;1.00
18670;DHT22;9464;44.918;9.670;2023-02-28T16:32:49;8.10;1.00
18670;DHT22;9464;44.918;9.670;2023-02-28T16:35:18;8.10;1.00
18670;DHT22;9464;44.918;9.670;2023-02-28T16:37:46;8.10;1.00
18670;DHT22;9464;44.918;9.670;2023-02-28T16:40:16;8.10;1.00
18670;DHT22;9464;44.918;9.670;2023-02-28T16:42:45;8.10;1.00
18670;DHT22;9464;44.918;9.670;2023-02-28T16:45:16;8.10;1.00
18670;DHT22;9464;44.918;9.670;2023-02-28T16:47:47;8.00;1.00
18670;DHT22;9464;44.918;9.670;2023-02-28T16:50:18;8.00;1.00
18670;DHT22;9464;44.918;9.670;2023-02-28T16:52:47;8.00;1.00
18670;DHT22;9464;44.918;9.670;2023-02-28T16:55:16;8.00;1.00
18670;DHT22;9464;44.918;9.670;2023-02-28T16:57:46;8.00;1.00
18670;DHT22;9464;44.918;9.670;2023-02-28T17:00:16;8.00;1.00
18670;DHT22;9464;44.918;9.670;2023-02-28T17:02:44;8.00;1.00
18670;DHT22;9464;44.918;9.670;2023-02-28T17:05:15;8.00;1.00
18670;DHT22;9464;44.918;9.670;2023-02-28T17:07:44;8.00;1.00
18670;DHT22;9464;44.918;9.670;2023-02-28T17:10:15;7.90;1.00